Time;durP1;ratioP1;P1;durP2;ratioP2;P2;SDS_P1;SDS_P2;PMS_P1;PMS_P2;Temp;Humidity;BMP_temperature;BMP_pressure;BME280_temperature;BME280_humidity;BME280_pressure;Samples;Min_cycle;Max_cycle;Signal;HPM_P1;HPM_P2
2022/10/14 00:02:24;;;;;;;22.55;13.85;;;;;;;10.97;73.90;100651.75;1858640;77;20986;-75
2022/10/14 00:04:51;;;;;;;24.18;13.40;;;;;;;11.00;73.97;100652.30;1859724;77;21025;-77
2022/10/14 00:07:18;;;;;;;26.12;14.23;;;;;;;10.97;74.04;100651.75;1859895;77;21091;-76
2022/10/14 00:09:45;;;;;;;24.50;13.72;;;;;;;10.97;74.66;100641.98;1862322;77;21047;-78
2022/10/14 00:12:13;;;;;;;25.57;12.98;;;;;;;11.01;75.07;100646.01;1860934;77;21023;-77
2022/10/14 00:14:41;;;;;;;21.73;12.93;;;;;;;11.06;75.31;100647.37;1857972;77;21063;-75
2022/10/14 00:17:08;;;;;;;23.07;13.00;;;;;;;11.06;75.43;100644.72;1857105;77;21059;-76
2022/10/14 00:19:36;;;;;;;20.68;12.13;;;;;;;11.12;75.31;100641.45;1857046;77;21546;-77
2022/10/14 00:22:02;;;;;;;18.90;12.80;;;;;;;11.23;75.09;100637.77;1857036;77;21028;-76
2022/10/14 00:24:29;;;;;;;22.73;13.00;;;;;;;11.25;75.11;100638.45;1856938;77;20977;-76
2022/10/14 00:26:56;;;;;;;20.55;12.68;;;;;;;11.25;74.98;100638.45;1859340;77;21193;-75
2022/10/14 00:29:23;;;;;;;25.72;13.45;;;;;;;11.27;74.71;100641.29;1859429;77;21044;-78
2022/10/14 00:31:50;;;;;;;23.40;13.65;;;;;;;11.24;74.49;100639.42;1859658;77;21615;-78
2022/10/14 00:34:17;;;;;;;22.85;14.15;;;;;;;11.23;74.59;100639.09;1859361;77;20977;-75
2022/10/14 00:36:44;;;;;;;22.13;13.38;;;;;;;11.20;74.73;100633.09;1859309;77;21078;-76
2022/10/14 00:39:12;;;;;;;20.75;12.20;;;;;;;11.15;75.00;100635.86;1857669;77;21039;-76
2022/10/14 00:41:39;;;;;;;24.18;12.90;;;;;;;11.13;75.07;100637.83;1857582;77;21530;-75
2022/10/14 00:44:20;;;;;;;22.45;14.13;;;;;;;11.19;74.93;100631.41;1856778;77;21041;-78
2022/10/14 00:46:48;;;;;;;31.23;14.87;;;;;;;11.19;74.96;100628.74;1857001;77;21125;-77
2022/10/14 00:49:32;;;;;;;21.80;14.87;;;;;;;11.18;74.75;100624.42;1856954;77;21582;-79
2022/10/14 00:52:07;;;;;;;23.70;14.25;;;;;;;11.19;74.55;100627.91;1856922;77;21441;-78
2022/10/14 00:54:40;;;;;;;24.92;14.85;;;;;;;11.16;74.53;100626.87;1854161;77;21059;-77
2022/10/14 00:57:09;;;;;;;24.85;15.15;;;;;;;11.12;74.51;100625.50;1859446;77;21130;-78
2022/10/14 00:59:36;;;;;;;22.00;12.45;;;;;;;11.07;74.76;100628.62;1861556;77;21007;-77
2022/10/14 01:02:03;;;;;;;25.52;13.48;;;;;;;11.11;75.03;100627.34;1861213;77;21008;-76
2022/10/14 01:04:31;;;;;;;26.42;13.35;;;;;;;11.19;75.01;100623.42;1861545;77;21019;-77
2022/10/14 01:07:19;;;;;;;24.67;13.48;;;;;;;11.14;75.33;100616.37;1859674;77;21019;-77
2022/10/14 01:10:08;;;;;;;21.90;13.48;;;;;;;11.09;75.52;100618.67;1859562;77;21520;-75
2022/10/14 01:13:14;;;;;;;25.00;14.13;;;;;;;11.01;75.71;100625.23;1859545;77;21449;-77
2022/10/14 01:16:19;;;;;;;25.52;13.90;;;;;;;10.81;75.99;100612.03;1859631;77;21031;-78
2022/10/14 01:19:18;;;;;;;27.62;13.90;;;;;;;10.62;76.47;100613.45;1825574;78;21024;-76
2022/10/14 01:21:49;;;;;;;25.88;14.78;;;;;;;10.54;76.80;100608.05;1838619;77;21511;-77
2022/10/14 01:24:50;;;;;;;18.55;12.25;;;;;;;10.52;77.00;100608.69;1858975;77;21527;-78
2022/10/14 01:27:37;;;;;;;22.75;13.95;;;;;;;10.42;77.40;100608.23;1856599;77;21016;-77
2022/10/14 01:30:17;;;;;;;24.43;14.30;;;;;;;10.29;77.82;100613.00;1857169;77;21578;-77
2022/10/14 01:32:53;;;;;;;29.20;14.85;;;;;;;10.19;78.19;100606.89;1857055;77;21012;-76
2022/10/14 01:35:37;;;;;;;22.10;12.75;;;;;;;10.11;78.46;100608.11;1857245;77;21035;-79
2022/10/14 01:38:21;;;;;;;21.95;14.33;;;;;;;10.07;78.63;100600.92;1857056;77;21129;-78
2022/10/14 01:41:15;;;;;;;24.77;14.43;;;;;;;10.19;78.54;100605.56;1856996;77;20987;-77
2022/10/14 01:43:43;;;;;;;28.15;16.50;;;;;;;10.13;78.72;100606.98;1857235;77;21036;-77
2022/10/14 01:46:10;;;;;;;23.92;14.75;;;;;;;10.04;79.01;100611.81;1856805;77;21041;-77
2022/10/14 01:48:43;;;;;;;25.80;15.65;;;;;;;9.95;79.21;100603.41;1856942;77;21020;-76
2022/10/14 01:51:18;;;;;;;24.82;15.50;;;;;;;9.83;79.48;100606.22;1858215;77;21238;-77
2022/10/14 01:53:58;;;;;;;21.82;12.80;;;;;;;9.77;79.77;100607.25;1860115;77;21031;-77
2022/10/14 01:56:27;;;;;;;23.25;12.98;;;;;;;9.83;79.80;100609.34;1857227;77;21008;-76
2022/10/14 01:58:53;;;;;;;20.82;12.63;;;;;;;9.95;79.57;100608.72;1858978;77;21063;-77
2022/10/14 02:01:20;;;;;;;26.97;15.72;;;;;;;9.94;79.60;100606.52;1857565;77;21530;-75
2022/10/14 02:03:47;;;;;;;21.82;14.47;;;;;;;9.94;79.72;100608.35;1858175;77;22079;-77
2022/10/14 02:06:22;;;;;;;25.50;16.55;;;;;;;9.90;79.66;100603.81;1859598;77;21038;-78
2022/10/14 02:09:12;;;;;;;21.17;14.30;;;;;;;9.86;79.69;100602.92;1860781;77;20991;-77
2022/10/14 02:12:02;;;;;;;24.60;14.47;;;;;;;9.91;79.63;100603.31;1859838;77;28511;-77
2022/10/14 02:14:55;;;;;;;22.90;14.85;;;;;;;10.00;79.62;100601.14;1858048;77;21001;-78
2022/10/14 02:17:42;;;;;;;23.52;16.17;;;;;;;9.99;79.87;100604.78;1808278;78;21007;-78
2022/10/14 02:20:25;;;;;;;23.02;16.15;;;;;;;9.91;80.00;100604.17;1851183;77;21021;-76
2022/10/14 02:23:07;;;;;;;27.82;17.07;;;;;;;9.83;80.23;100602.70;1859709;77;21083;-76
2022/10/14 02:25:37;;;;;;;24.18;14.83;;;;;;;9.76;80.44;100601.12;1859404;77;21560;-78
2022/10/14 02:28:06;;;;;;;23.60;15.53;;;;;;;9.80;80.58;100595.04;1859714;77;20974;-76
2022/10/14 02:30:39;;;;;;;20.92;14.55;;;;;;;9.91;80.58;100600.20;1859405;77;21282;-77
2022/10/14 02:33:06;;;;;;;25.48;15.90;;;;;;;9.93;80.69;100602.22;1859465;77;21528;-77
2022/10/14 02:35:33;;;;;;;30.23;17.32;;;;;;;9.93;80.75;100604.87;1859456;77;21071;-77
2022/10/14 02:38:01;;;;;;;23.77;16.73;;;;;;;9.89;80.60;100605.27;1859204;77;21458;-76
2022/10/14 02:40:34;;;;;;;25.35;16.25;;;;;;;9.83;80.82;100602.70;1826574;77;21008;-79
2022/10/14 02:43:00;;;;;;;25.62;16.48;;;;;;;9.81;80.80;100596.70;1860011;77;23125;-76
2022/10/14 02:45:27;;;;;;;24.37;16.55;;;;;;;9.87;80.73;100605.45;1828670;77;20987;-76
2022/10/14 02:47:54;;;;;;;25.35;16.52;;;;;;;9.79;81.01;100601.31;1863543;77;21004;-79
2022/10/14 02:50:21;;;;;;;27.35;17.42;;;;;;;9.72;81.45;100605.03;1852762;77;20976;-78
2022/10/14 02:52:47;;;;;;;28.90;18.48;;;;;;;9.73;81.65;100601.88;1857655;77;21052;-78
2022/10/14 02:55:14;;;;;;;31.95;19.67;;;;;;;9.73;81.73;100601.88;1857146;77;21986;-77
2022/10/14 02:57:41;;;;;;;25.00;16.97;;;;;;;9.72;81.83;100598.91;1856905;77;21548;-78
2022/10/14 03:00:10;;;;;;;26.80;17.05;;;;;;;9.75;81.87;100599.42;1856986;77;21008;-79
2022/10/14 03:02:37;;;;;;;30.95;18.32;;;;;;;9.87;81.82;100604.58;1856956;77;21538;-78
2022/10/14 03:05:04;;;;;;;29.90;17.62;;;;;;;9.85;82.05;100604.75;1857188;77;21036;-78
2022/10/14 03:07:31;;;;;;;33.25;19.05;;;;;;;9.81;82.30;100604.20;1856987;77;21576;-78
2022/10/14 03:10:00;;;;;;;27.00;19.98;;;;;;;9.77;82.57;100598.83;1856956;77;21972;-78
2022/10/14 03:12:28;;;;;;;26.70;17.05;;;;;;;9.74;82.87;100598.27;1856918;77;21028;-77
2022/10/14 03:14:56;;;;;;;32.83;18.37;;;;;;;9.77;82.82;100594.84;1857173;77;21043;-78
2022/10/14 03:17:24;;;;;;;28.10;18.10;;;;;;;9.95;82.57;100599.42;1856922;77;21023;-77
2022/10/14 03:19:52;;;;;;;30.65;18.70;;;;;;;9.97;82.73;100600.95;1826492;77;21025;-78
2022/10/14 03:22:20;;;;;;;26.73;19.50;;;;;;;10.00;82.92;100599.31;1859316;77;21497;-76
2022/10/14 03:24:48;;;;;;;33.05;18.87;;;;;;;10.01;82.84;100597.02;1859544;77;21514;-77
2022/10/14 03:27:16;;;;;;;29.60;17.87;;;;;;;10.04;82.93;100595.88;1857053;77;20989;-77
2022/10/14 03:29:43;;;;;;;28.67;17.10;;;;;;;10.10;82.81;100600.64;1857847;77;21039;-79
2022/10/14 03:32:16;;;;;;;27.42;16.40;;;;;;;10.23;82.61;100602.96;1856977;77;21043;-78
2022/10/14 03:34:54;;;;;;;27.65;15.48;;;;;;;10.21;82.57;100599.11;1854663;77;21032;-78
2022/10/14 03:37:22;;;;;;;20.62;14.38;;;;;;;10.18;82.30;100598.59;1859093;77;20933;-77
2022/10/14 03:39:49;;;;;;;24.32;14.95;;;;;;;10.16;82.00;100596.55;1859150;77;20988;-78
2022/10/14 03:42:16;;;;;;;24.12;14.28;;;;;;;10.12;81.80;100596.48;1857465;77;21711;-78
2022/10/14 03:44:45;;;;;;;25.12;14.83;;;;;;;10.15;81.54;100590.91;1857298;77;21092;-77
2022/10/14 03:47:16;;;;;;;25.85;15.48;;;;;;;10.27;81.15;100591.06;1855012;77;21016;-77
2022/10/14 03:49:44;;;;;;;23.95;14.75;;;;;;;10.27;80.98;100596.37;1859123;77;21028;-77
2022/10/14 03:52:15;;;;;;;24.95;15.23;;;;;;;10.24;80.79;100598.02;1838667;77;21547;-76
2022/10/14 03:54:42;;;;;;;26.57;15.68;;;;;;;10.22;80.73;100594.16;1829255;78;21028;-76
2022/10/14 03:57:09;;;;;;;27.40;14.70;;;;;;;10.23;80.73;100592.34;1829116;78;21215;-77
2022/10/14 03:59:38;;;;;;;23.40;13.15;;;;;;;10.28;80.44;100595.41;1828730;78;21091;-76
2022/10/14 04:02:05;;;;;;;28.67;14.20;;;;;;;10.38;80.11;100600.22;1831355;77;21004;-77
2022/10/14 04:04:31;;;;;;;24.00;16.20;;;;;;;10.36;79.97;100596.04;1857426;77;21515;-78
2022/10/14 04:06:59;;;;;;;24.70;16.80;;;;;;;10.31;80.08;100594.30;1857418;77;21515;-76
2022/10/14 04:09:27;;;;;;;21.95;14.87;;;;;;;10.29;80.18;100599.72;1857556;77;21774;-79
2022/10/14 04:11:56;;;;;;;20.90;14.95;;;;;;;10.25;80.16;100595.69;1857312;77;21024;-78
2022/10/14 04:14:38;;;;;;;22.85;13.48;;;;;;;10.12;80.35;100600.00;1856145;77;20988;-77
2022/10/14 04:17:05;;;;;;;20.85;13.18;;;;;;;10.08;80.43;100595.11;1857396;77;21008;-75
2022/10/14 04:19:32;;;;;;;24.05;13.65;;;;;;;10.12;80.39;100596.02;1860143;77;21535;-76
2022/10/14 04:22:01;;;;;;;21.95;11.78;;;;;;;10.05;80.47;100596.25;1863186;77;21674;-76
2022/10/14 04:24:27;;;;;;;21.27;13.20;;;;;;;9.98;80.56;100597.30;1863005;77;20958;-77
2022/10/14 04:26:56;;;;;;;20.08;13.08;;;;;;;9.93;80.60;100593.39;1862896;77;20994;-77
2022/10/14 04:29:24;;;;;;;20.08;12.03;;;;;;;9.86;80.64;100590.98;1863909;77;20985;-77
2022/10/14 04:31:53;;;;;;;29.20;12.30;;;;;;;9.87;80.62;100594.83;1866202;77;20961;-78
2022/10/14 04:34:20;;;;;;;18.00;11.68;;;;;;;9.95;80.45;100595.44;1864695;77;21117;-78
2022/10/14 04:36:47;;;;;;;20.43;12.75;;;;;;;9.90;80.64;100601.16;1863197;77;21466;-78
2022/10/14 04:39:24;;;;;;;24.77;12.95;;;;;;;9.84;80.79;100600.41;1861055;77;21009;-78
2022/10/14 04:41:52;;;;;;;23.27;12.63;;;;;;;9.77;81.07;100600.62;1862777;77;21015;-78
2022/10/14 04:44:20;;;;;;;20.37;13.43;;;;;;;9.68;81.26;100597.02;1862987;77;21024;-78
2022/10/14 04:46:48;;;;;;;22.52;13.60;;;;;;;9.71;81.41;100599.86;1860744;77;21661;-77
2022/10/14 04:49:17;;;;;;;21.23;13.38;;;;;;;9.81;81.31;100601.54;1858272;77;20997;-78
2022/10/14 04:51:45;;;;;;;26.05;14.45;;;;;;;9.83;81.45;100606.68;1858617;77;20985;-78
2022/10/14 04:54:31;;;;;;;23.12;14.58;;;;;;;9.85;81.52;100606.08;1857368;77;21006;-78
2022/10/14 04:56:59;;;;;;;23.92;13.30;;;;;;;9.89;81.53;100609.26;1859875;77;21056;-77
2022/10/14 04:59:26;;;;;;;18.12;12.68;;;;;;;9.89;81.50;100603.95;1856061;77;21596;-78
2022/10/14 05:01:55;;;;;;;27.17;15.43;;;;;;;9.99;81.27;100606.95;1839385;77;21029;-78
2022/10/14 05:04:23;;;;;;;26.95;15.32;;;;;;;10.05;81.18;100602.87;1858763;77;20997;-78
2022/10/14 05:06:50;;;;;;;29.02;16.90;;;;;;;10.04;81.35;100609.16;1859229;77;21071;-78
2022/10/14 05:09:17;;;;;;;34.85;19.25;;;;;;;10.03;81.57;100612.81;1837659;77;21014;-78
2022/10/14 05:11:44;;;;;;;26.60;17.45;;;;;;;10.01;81.85;100605.48;1822660;77;21068;-78
2022/10/14 05:14:13;;;;;;;29.37;17.82;;;;;;;10.07;82.06;100608.05;1857053;77;20983;-78
2022/10/14 05:16:40;;;;;;;28.75;19.37;;;;;;;10.16;81.95;100615.99;1857028;77;21015;-77
2022/10/14 05:19:08;;;;;;;26.40;18.65;;;;;;;10.13;82.11;100613.61;1857883;77;21047;-78
2022/10/14 05:21:36;;;;;;;28.87;17.60;;;;;;;10.12;82.26;100615.08;1861062;77;20946;-79
2022/10/14 05:24:05;;;;;;;26.33;19.02;;;;;;;10.13;82.40;100618.09;1858911;77;21157;-78
2022/10/14 05:26:32;;;;;;;24.23;16.65;;;;;;;10.14;82.24;100617.09;1860192;77;21498;-77
2022/10/14 05:29:01;;;;;;;23.62;16.62;;;;;;;10.24;82.08;100618.76;1859717;77;21055;-78
2022/10/14 05:31:29;;;;;;;25.80;16.65;;;;;;;10.39;81.84;100620.50;1859565;77;21063;-79
2022/10/14 05:34:03;;;;;;;27.55;17.48;;;;;;;10.47;81.73;100624.22;1858248;77;21051;-78
2022/10/14 05:36:30;;;;;;;29.20;18.25;;;;;;;10.47;81.46;100625.08;1859507;77;21875;-77
2022/10/14 05:38:58;;;;;;;26.55;17.52;;;;;;;10.45;81.45;100624.39;1857722;77;21040;-78
2022/10/14 05:41:27;;;;;;;27.98;17.73;;;;;;;10.46;81.29;100623.89;1856935;77;20996;-77
2022/10/14 05:43:53;;;;;;;24.05;16.75;;;;;;;10.52;80.99;100628.12;1857037;77;21028;-78
2022/10/14 05:46:20;;;;;;;26.27;17.85;;;;;;;10.67;80.51;100632.47;1857918;77;21039;-76
2022/10/14 05:48:48;;;;;;;29.32;18.62;;;;;;;10.68;80.32;100637.28;1858054;76;21082;-78
2022/10/14 05:51:19;;;;;;;32.88;19.32;;;;;;;10.67;80.35;100639.11;1852075;77;20973;-79
2022/10/14 05:53:44;;;;;;;27.58;19.67;;;;;;;10.70;80.29;100637.50;1851665;77;21090;-79
2022/10/14 05:56:12;;;;;;;28.52;18.17;;;;;;;10.77;80.11;100638.56;1858955;76;21051;-78
2022/10/14 05:58:40;;;;;;;25.62;18.75;;;;;;;10.80;79.65;100635.62;1860738;77;21051;-79
2022/10/14 06:01:08;;;;;;;29.67;18.45;;;;;;;10.92;79.13;100634.10;1860546;77;21176;-76
2022/10/14 06:03:36;;;;;;;33.18;19.00;;;;;;;10.93;78.95;100641.08;1860076;77;21007;-73
2022/10/14 06:06:03;;;;;;;24.10;18.40;;;;;;;10.92;78.99;100638.92;1860148;77;21031;-78
2022/10/14 06:08:30;;;;;;;28.92;18.85;;;;;;;10.95;78.83;100639.10;1860371;77;22054;-75
2022/10/14 06:11:01;;;;;;;33.18;21.07;;;;;;;10.95;78.73;100642.62;1860530;76;20996;-77
2022/10/14 06:13:29;;;;;;;34.58;20.68;;;;;;;10.96;78.69;100644.78;1836109;77;21239;-76
2022/10/14 06:15:56;;;;;;;29.80;20.23;;;;;;;11.05;78.72;100647.02;1862353;77;21012;-75
2022/10/14 06:18:22;;;;;;;35.28;21.77;;;;;;;11.19;78.90;100646.53;1862152;76;21562;-75
2022/10/14 06:20:53;;;;;;;36.20;22.77;;;;;;;11.24;79.22;100650.89;1841534;76;21516;-76
2022/10/14 06:23:20;;;;;;;34.45;22.52;;;;;;;11.21;79.40;100653.86;1829304;76;21002;-76
2022/10/14 06:25:46;;;;;;;38.02;24.77;;;;;;;11.17;79.54;100654.66;1868671;76;21638;-76
2022/10/14 06:28:13;;;;;;;32.25;22.07;;;;;;;11.16;79.69;100655.66;1868787;76;21001;-74
2022/10/14 06:30:39;;;;;;;37.88;23.67;;;;;;;11.25;79.55;100655.73;1869139;76;20992;-76
2022/10/14 06:33:06;;;;;;;31.73;21.70;;;;;;;11.39;79.35;100653.87;1868895;76;21039;-76
2022/10/14 06:35:34;;;;;;;31.52;20.27;;;;;;;11.43;79.27;100657.07;1868614;76;21027;-75
2022/10/14 06:38:01;;;;;;;32.05;21.27;;;;;;;11.41;78.86;100651.89;1868688;76;21190;-77
2022/10/14 06:40:28;;;;;;;30.95;20.90;;;;;;;11.36;78.47;100656.36;1863071;76;21015;-76
2022/10/14 06:42:57;;;;;;;38.00;23.70;;;;;;;11.34;78.24;100646.86;1860196;77;21051;-75
2022/10/14 06:45:23;;;;;;;32.23;20.48;;;;;;;11.33;78.07;100649.16;1833605;77;21031;-76
2022/10/14 06:47:50;;;;;;;33.85;21.45;;;;;;;11.38;77.96;100652.22;1860250;77;21031;-76
2022/10/14 06:50:17;;;;;;;35.23;22.80;;;;;;;11.45;77.72;100645.78;1832282;76;21017;-77
2022/10/14 06:52:46;;;;;;;33.90;21.57;;;;;;;11.35;77.79;100645.86;1869098;76;21032;-76
2022/10/14 06:55:13;;;;;;;33.48;23.00;;;;;;;11.25;78.25;100655.73;1868833;76;21036;-76
2022/10/14 06:57:40;;;;;;;29.87;19.85;;;;;;;11.11;78.65;100653.92;1868901;76;20973;-76
2022/10/14 07:00:07;;;;;;;28.75;19.42;;;;;;;11.01;79.13;100655.81;1866197;76;21067;-76
2022/10/14 07:02:36;;;;;;;29.00;19.80;;;;;;;11.05;79.05;100656.33;1860394;77;21601;-76
2022/10/14 07:05:03;;;;;;;29.82;21.33;;;;;;;11.09;79.10;100659.89;1861055;77;21016;-76
2022/10/14 07:07:31;;;;;;;32.58;21.12;;;;;;;11.08;79.08;100663.52;1862256;77;20965;-76
2022/10/14 07:09:59;;;;;;;28.38;20.40;;;;;;;11.06;78.93;100653.53;1861101;76;21031;-76
2022/10/14 07:12:26;;;;;;;29.67;18.98;;;;;;;11.08;78.70;100660.03;1860361;77;20973;-76
2022/10/14 07:14:53;;;;;;;29.05;16.80;;;;;;;11.12;78.07;100651.59;1860310;77;21113;-76
2022/10/14 07:17:21;;;;;;;29.48;18.40;;;;;;;11.24;77.49;100651.39;1860096;77;21035;-77
2022/10/14 07:19:47;;;;;;;30.48;18.73;;;;;;;11.36;76.97;100652.86;1866176;76;21001;-76
2022/10/14 07:22:16;;;;;;;24.02;16.42;;;;;;;11.43;76.74;100655.24;1868696;76;21511;-76
2022/10/14 07:24:43;;;;;;;24.02;17.60;;;;;;;11.46;76.21;100648.80;1868703;76;21054;-76
2022/10/14 07:27:10;;;;;;;28.55;17.35;;;;;;;11.50;76.08;100651.00;1868593;76;21212;-76
2022/10/14 07:29:38;;;;;;;23.47;17.62;;;;;;;11.61;75.69;100645.45;1868543;76;21984;-76
2022/10/14 07:32:05;;;;;;;24.45;16.57;;;;;;;11.70;74.85;100651.66;1868622;76;21026;-76
2022/10/14 07:34:35;;;;;;;25.30;14.98;;;;;;;11.72;74.16;100646.19;1868780;76;21042;-76
2022/10/14 07:37:02;;;;;;;28.52;16.90;;;;;;;11.82;73.85;100642.97;1868798;76;21082;-75
2022/10/14 07:39:29;;;;;;;36.58;15.95;;;;;;;11.99;73.63;100638.62;1868760;76;22017;-76
2022/10/14 07:41:55;;;;;;;22.45;14.50;;;;;;;12.11;73.27;100633.87;1868655;76;21031;-75
2022/10/14 07:44:22;;;;;;;20.23;14.30;;;;;;;12.20;72.50;100644.92;1868533;76;21319;-76
2022/10/14 07:46:48;;;;;;;25.50;16.15;;;;;;;12.23;71.85;100651.28;1861248;76;21016;-76
2022/10/14 07:49:18;;;;;;;25.92;14.23;;;;;;;12.22;71.86;100643.44;1854700;76;21031;-76
2022/10/14 07:51:44;;;;;;;20.30;12.23;;;;;;;12.26;71.42;100648.28;1868991;76;21119;-76
2022/10/14 07:54:18;;;;;;;18.05;13.18;;;;;;;12.26;70.98;100649.62;1868719;76;21000;-76
2022/10/14 07:56:44;;;;;;;16.25;12.05;;;;;;;12.25;70.96;100640.47;1861714;76;21035;-75
2022/10/14 07:59:12;;;;;;;23.73;13.50;;;;;;;12.22;71.00;100646.94;1861700;77;20964;-75
2022/10/14 08:01:41;;;;;;;22.13;10.82;;;;;;;12.26;70.93;100642.13;1860957;77;21028;-76
2022/10/14 08:04:10;;;;;;;15.75;10.43;;;;;;;12.39;70.69;100644.70;1866731;76;21547;-75
2022/10/14 08:06:38;;;;;;;11.88;9.30;;;;;;;12.56;69.94;100646.14;1869111;76;21027;-76
2022/10/14 08:09:06;;;;;;;18.95;10.30;;;;;;;12.61;69.61;100646.48;1869179;76;21055;-76
2022/10/14 08:11:32;;;;;;;15.03;9.95;;;;;;;12.67;69.55;100643.20;1864480;76;21071;-75
2022/10/14 08:13:59;;;;;;;18.77;10.35;;;;;;;12.73;69.18;100639.89;1866820;76;21008;-76
2022/10/14 08:16:29;;;;;;;21.27;9.88;;;;;;;12.79;69.00;100635.75;1862732;76;21105;-74
2022/10/14 08:19:00;;;;;;;16.40;9.43;;;;;;;12.89;68.76;100639.62;1863681;76;21032;-75
2022/10/14 08:21:28;;;;;;;20.57;10.90;;;;;;;12.95;68.48;100639.80;1860159;77;21047;-75
2022/10/14 08:23:55;;;;;;;17.25;9.08;;;;;;;13.04;68.16;100640.67;1860148;77;20991;-74
2022/10/14 08:26:29;;;;;;;13.35;8.93;;;;;;;13.12;68.05;100630.02;1860145;77;21015;-76
2022/10/14 08:29:00;;;;;;;20.37;9.45;;;;;;;13.24;67.62;100633.72;1860481;77;21724;-76
2022/10/14 08:31:28;;;;;;;16.73;9.83;;;;;;;13.34;67.49;100640.59;1860119;77;21019;-76
2022/10/14 08:33:54;;;;;;;16.35;9.10;;;;;;;13.49;67.32;100634.62;1860463;77;21510;-76
2022/10/14 08:36:21;;;;;;;12.75;8.33;;;;;;;13.63;66.50;100641.13;1860138;77;21031;-77
2022/10/14 08:38:49;;;;;;;20.65;9.30;;;;;;;13.71;66.22;100637.13;1860813;77;21012;-77
2022/10/14 08:41:34;;;;;;;19.20;8.68;;;;;;;13.80;66.27;100634.80;1807884;78;21139;-76
2022/10/14 08:44:15;;;;;;;18.60;8.68;;;;;;;13.98;66.09;100632.45;1834581;78;21110;-76
2022/10/14 08:46:48;;;;;;;15.65;9.03;;;;;;;14.14;65.50;100632.44;1850058;76;21479;-75
2022/10/14 08:49:35;;;;;;;16.37;9.08;;;;;;;14.22;64.55;100632.92;1860606;77;21080;-75
2022/10/14 08:52:09;;;;;;;14.15;8.83;;;;;;;14.27;64.17;100629.22;1859983;77;20973;-75
2022/10/14 08:54:43;;;;;;;16.95;8.33;;;;;;;14.39;63.80;100623.86;1857736;77;21074;-76
2022/10/14 08:57:19;;;;;;;16.25;8.83;;;;;;;14.59;63.63;100631.00;1856900;77;21039;-76
2022/10/14 08:59:46;;;;;;;10.23;6.97;;;;;;;14.85;63.04;100621.35;1856745;77;21492;-77
2022/10/14 09:03:05;;;;;;;12.63;7.28;;;;;;;15.33;61.90;100625.27;1870231;76;28028;-76
2022/10/14 09:05:32;;;;;;;11.90;7.12;;;;;;;15.44;60.62;100635.58;1808797;78;20934;-76
2022/10/14 09:07:58;;;;;;;14.18;7.45;;;;;;;15.49;59.96;100633.69;1826487;78;21210;-77
2022/10/14 09:10:38;;;;;;;15.13;9.08;;;;;;;15.51;60.16;100633.00;1780053;78;20922;-76
2022/10/14 09:13:14;;;;;;;13.53;7.33;;;;;;;15.71;59.57;100629.36;1826401;78;21523;-75
2022/10/14 09:15:49;;;;;;;14.33;6.80;;;;;;;16.02;58.74;100633.29;1826447;78;21081;-74
2022/10/14 09:18:33;;;;;;;8.53;6.50;;;;;;;16.62;57.29;100625.30;1852534;77;20990;-75
2022/10/14 09:21:00;;;;;;;8.13;6.20;;;;;;;17.22;55.64;100636.27;1858064;77;21092;-76
2022/10/14 09:23:27;;;;;;;9.30;6.05;;;;;;;17.87;53.99;100626.90;1857636;77;21004;-76
2022/10/14 09:25:57;;;;;;;12.30;5.83;;;;;;;18.48;52.54;100623.57;1857795;77;21083;-77
2022/10/14 09:28:37;;;;;;;9.93;4.97;;;;;;;18.95;51.74;100613.89;1857720;77;21122;-76
2022/10/14 09:31:04;;;;;;;9.48;5.87;;;;;;;19.41;49.88;100628.00;1857560;77;21012;-76
2022/10/14 09:33:33;;;;;;;9.95;5.40;;;;;;;19.74;50.28;100619.65;1857636;77;21004;-77
2022/10/14 09:36:00;;;;;;;9.55;5.90;;;;;;;20.38;49.68;100605.48;1845922;77;20977;-77
2022/10/14 09:38:26;;;;;;;9.35;5.70;;;;;;;21.17;47.35;100608.07;1846470;77;21032;-77
2022/10/14 09:40:57;;;;;;;11.53;6.65;;;;;;;21.84;46.50;100603.58;1846855;77;21042;-76
2022/10/14 09:43:24;;;;;;;11.50;6.12;;;;;;;22.28;45.35;100598.49;1847906;77;21028;-76
2022/10/14 09:46:01;;;;;;;8.43;5.55;;;;;;;22.69;43.92;100598.86;1846628;77;21200;-76
2022/10/14 09:48:40;;;;;;;10.93;5.83;;;;;;;23.02;43.04;100595.71;1855047;77;21051;-76
2022/10/14 09:51:21;;;;;;;11.35;5.78;;;;;;;23.16;42.85;100604.00;1857685;77;21128;-76
2022/10/14 09:53:52;;;;;;;12.13;5.78;;;;;;;23.22;42.21;100597.34;1852806;77;21543;-76
2022/10/14 09:56:35;;;;;;;7.80;5.60;;;;;;;23.57;41.37;100597.45;1835162;77;21067;-77
2022/10/14 09:59:03;;;;;;;8.70;5.78;;;;;;;23.88;41.20;100589.54;1826243;78;21135;-76
2022/10/14 10:01:39;;;;;;;8.88;5.00;;;;;;;24.57;40.65;100586.20;1826102;78;20993;-76
2022/10/14 10:04:32;;;;;;;7.40;4.90;;;;;;;25.32;39.62;100573.47;1826325;78;21041;-78
2022/10/14 10:07:04;;;;;;;7.12;4.83;;;;;;;26.02;38.85;100573.53;1818698;78;20978;-76
2022/10/14 10:09:31;;;;;;;7.58;4.78;;;;;;;26.82;37.56;100572.64;1826679;78;21247;-77
2022/10/14 10:11:58;;;;;;;7.83;5.50;;;;;;;27.12;36.89;100577.30;1851817;77;21616;-76
2022/10/14 10:14:28;;;;;;;10.70;5.50;;;;;;;27.07;36.12;100580.27;1856903;77;21535;-77
2022/10/14 10:17:12;;;;;;;8.15;4.90;;;;;;;26.70;36.59;100580.15;1857475;77;21008;-76
2022/10/14 10:19:44;;;;;;;8.85;4.83;;;;;;;26.23;36.51;100577.88;1857056;77;21032;-76
2022/10/14 10:22:22;;;;;;;8.55;5.10;;;;;;;25.26;36.78;100578.55;1826328;77;21032;-77
2022/10/14 10:25:09;;;;;;;9.30;4.78;;;;;;;23.85;38.30;100589.18;1835169;77;21529;-76
2022/10/14 10:27:40;;;;;;;8.63;5.12;;;;;;;22.74;39.94;100589.54;1825695;78;21056;-76
2022/10/14 10:30:15;;;;;;;8.60;5.10;;;;;;;22.10;40.46;100578.98;1825316;78;21029;-78
2022/10/14 10:33:19;;;;;;;8.98;4.35;;;;;;;21.70;41.15;100578.00;1827947;77;21652;-76
2022/10/14 10:36:09;;;;;;;9.33;5.50;;;;;;;21.38;41.67;100582.58;1794848;80;20982;-78
2022/10/14 10:39:03;;;;;;;7.42;4.67;;;;;;;21.15;42.14;100577.73;1794207;80;21437;-76
2022/10/14 10:41:57;;;;;;;6.50;5.00;;;;;;;20.84;42.56;100577.20;1809685;77;21041;-76
2022/10/14 10:44:52;;;;;;;10.18;5.22;;;;;;;20.54;42.78;100577.19;1818204;77;21076;-78
2022/10/14 10:47:44;;;;;;;7.90;4.30;;;;;;;20.34;42.93;100579.97;1784400;80;21024;-76
2022/10/14 10:50:26;;;;;;;6.00;4.83;;;;;;;20.12;43.29;100571.28;1784912;80;21029;-76
2022/10/14 10:53:24;;;;;;;8.60;4.17;;;;;;;19.93;43.63;100576.20;1821527;77;21906;-76
2022/10/14 10:56:19;;;;;;;10.50;4.35;;;;;;;19.78;43.87;100579.10;1802136;77;21010;-77
2022/10/14 10:58:55;;;;;;;11.65;4.50;;;;;;;19.62;43.38;100577.62;1814700;78;21040;-76
2022/10/14 11:01:57;;;;;;;11.80;4.50;;;;;;;19.30;43.72;100570.67;1796523;77;21589;-75
2022/10/14 11:04:52;;;;;;;9.18;4.65;;;;;;;18.91;43.54;100576.30;1823378;77;21007;-77
2022/10/14 11:13:44;;;;;;;12.37;5.58;;;;;;;17.91;45.32;100570.38;1832753;77;21087;-77
2022/10/14 11:16:37;;;;;;;8.28;4.83;;;;;;;18.37;45.63;100562.25;1831699;77;21032;-76
2022/10/14 11:19:20;;;;;;;10.03;5.20;;;;;;;19.02;45.13;100570.30;1791642;79;20965;-76
2022/10/14 11:22:08;;;;;;;8.90;5.63;;;;;;;19.34;44.86;100567.88;1799456;79;21205;-76
2022/10/14 11:25:01;;;;;;;11.25;9.28;;;;;;;19.22;45.26;100556.89;1825773;77;21985;-77
2022/10/14 11:27:42;;;;;;;9.78;7.37;;;;;;;18.88;45.95;100556.50;1832336;77;21033;-75
2022/10/14 11:30:19;;;;;;;9.48;6.25;;;;;;;18.68;46.48;100553.72;1833307;77;21028;-76
2022/10/14 11:33:23;;;;;;;8.70;6.17;;;;;;;18.51;46.78;100561.30;1831335;78;20977;-75
2022/10/14 11:36:08;;;;;;;10.93;5.90;;;;;;;18.31;46.84;100555.84;1842801;77;21853;-77
2022/10/14 11:38:54;;;;;;;10.88;5.70;;;;;;;18.11;47.20;100554.36;1854237;77;20997;-75
2022/10/14 11:41:53;;;;;;;19.02;6.03;;;;;;;18.08;47.26;100553.44;1854551;77;21059;-76
2022/10/14 11:44:32;;;;;;;14.73;5.50;;;;;;;18.05;46.97;100547.09;1854384;77;21098;-76
2022/10/14 11:47:03;;;;;;;12.00;5.08;;;;;;;18.18;46.10;100555.24;1837560;77;21017;-76